sensor_id;sensor_type;location;lat;lon;timestamp;pressure;altitude;pressure_sealevel;temperature;humidity
74230;BME280;62589;12.568;99.958;2023-04-01T00:01:04;100742.06;;;33.81;55.50
74230;BME280;62589;12.568;99.958;2023-04-01T00:03:32;100746.47;;;33.82;55.31
74230;BME280;62589;12.568;99.958;2023-04-01T00:05:59;100756.81;;;33.81;55.56
74230;BME280;62589;12.568;99.958;2023-04-01T00:08:27;100751.63;;;33.83;55.58
74230;BME280;62589;12.568;99.958;2023-04-01T00:10:54;100755.22;;;33.84;55.85
74230;BME280;62589;12.568;99.958;2023-04-01T00:13:21;100768.34;;;33.87;56.11
74230;BME280;62589;12.568;99.958;2023-04-01T00:15:47;100775.91;;;33.86;55.88
74230;BME280;62589;12.568;99.958;2023-04-01T00:18:14;100778.31;;;33.88;56.34
74230;BME280;62589;12.568;99.958;2023-04-01T00:20:49;100785.06;;;33.90;56.36
74230;BME280;62589;12.568;99.958;2023-04-01T00:23:16;100783.88;;;33.95;55.92
74230;BME280;62589;12.568;99.958;2023-04-01T00:25:44;100795.41;;;33.97;55.86
74230;BME280;62589;12.568;99.958;2023-04-01T00:28:11;100794.63;;;34.00;55.75
74230;BME280;62589;12.568;99.958;2023-04-01T00:30:38;100794.25;;;34.05;55.53
74230;BME280;62589;12.568;99.958;2023-04-01T00:33:04;100791.88;;;34.07;54.92
74230;BME280;62589;12.568;99.958;2023-04-01T00:35:31;100799.03;;;34.08;53.86
74230;BME280;62589;12.568;99.958;2023-04-01T00:37:58;100799.81;;;34.12;52.73
74230;BME280;62589;12.568;99.958;2023-04-01T00:40:38;100811.34;;;34.14;52.63
74230;BME280;62589;12.568;99.958;2023-04-01T00:43:12;100810.16;;;34.19;52.49
74230;BME280;62589;12.568;99.958;2023-04-01T00:45:41;100821.72;;;34.24;52.04
74230;BME280;62589;12.568;99.958;2023-04-01T00:48:20;100824.16;;;34.29;51.72
74230;BME280;62589;12.568;99.958;2023-04-01T00:50:55;100822.56;;;34.35;50.81
74230;BME280;62589;12.568;99.958;2023-04-01T00:53:23;100817.38;;;34.44;50.23
74230;BME280;62589;12.568;99.958;2023-04-01T00:55:56;100812.63;;;34.49;49.55
74230;BME280;62589;12.568;99.958;2023-04-01T00:58:27;100828.53;;;34.59;49.58
74230;BME280;62589;12.568;99.958;2023-04-01T01:00:56;100828.94;;;34.68;49.20
74230;BME280;62589;12.568;99.958;2023-04-01T01:03:24;100827.72;;;34.76;48.79
74230;BME280;62589;12.568;99.958;2023-04-01T01:12:11;100837.28;;;34.96;48.47
74230;BME280;62589;12.568;99.958;2023-04-01T01:23:42;100854.00;;;35.10;48.56
74230;BME280;62589;12.568;99.958;2023-04-01T01:26:33;100866.34;;;35.17;48.38
74230;BME280;62589;12.568;99.958;2023-04-01T01:29:42;100858.78;;;35.28;48.36
74230;BME280;62589;12.568;99.958;2023-04-01T01:32:32;100862.72;;;35.34;47.91
74230;BME280;62589;12.568;99.958;2023-04-01T01:38:02;100861.50;;;35.42;47.93
74230;BME280;62589;12.568;99.958;2023-04-01T01:40:31;100865.47;;;35.52;47.78
74230;BME280;62589;12.568;99.958;2023-04-01T01:43:05;100865.09;;;35.50;47.83
74230;BME280;62589;12.568;99.958;2023-04-01T01:45:36;100874.63;;;35.56;46.97
74230;BME280;62589;12.568;99.958;2023-04-01T01:48:08;100873.41;;;35.60;46.60
74230;BME280;62589;12.568;99.958;2023-04-01T01:50:35;100879.38;;;35.62;46.86
74230;BME280;62589;12.568;99.958;2023-04-01T01:53:05;100882.16;;;35.69;46.27
74230;BME280;62589;12.568;99.958;2023-04-01T01:55:36;100887.34;;;35.74;46.44
74230;BME280;62589;12.568;99.958;2023-04-01T01:58:23;100882.91;;;35.84;46.46
74230;BME280;62589;12.568;99.958;2023-04-01T02:00:55;100881.31;;;35.87;46.03
74230;BME280;62589;12.568;99.958;2023-04-01T02:03:24;100876.09;;;35.96;46.18
74230;BME280;62589;12.568;99.958;2023-04-01T02:05:55;100886.41;;;36.02;46.31
74230;BME280;62589;12.568;99.958;2023-04-01T02:08:28;100882.09;;;35.91;45.88
74230;BME280;62589;12.568;99.958;2023-04-01T02:11:04;100880.78;;;36.06;45.57
74230;BME280;62589;12.568;99.958;2023-04-01T02:13:55;100891.94;;;36.13;45.46
74230;BME280;62589;12.568;99.958;2023-04-01T02:16:34;100888.28;;;36.23;44.90
74230;BME280;62589;12.568;99.958;2023-04-01T02:19:04;100877.50;;;36.25;45.28
74230;BME280;62589;12.568;99.958;2023-04-01T02:21:36;100889.06;;;36.24;44.87
74230;BME280;62589;12.568;99.958;2023-04-01T02:24:10;100888.28;;;36.27;44.58
74230;BME280;62589;12.568;99.958;2023-04-01T02:26:38;100887.00;;;36.38;44.42
74230;BME280;62589;12.568;99.958;2023-04-01T02:29:06;100885.38;;;36.41;44.15
74230;BME280;62589;12.568;99.958;2023-04-01T02:31:35;100877.38;;;36.43;44.34
74230;BME280;62589;12.568;99.958;2023-04-01T02:34:03;100881.75;;;36.47;44.05
74230;BME280;62589;12.568;99.958;2023-04-01T02:36:30;100882.53;;;36.48;44.32
74230;BME280;62589;12.568;99.958;2023-04-01T02:38:58;100873.22;;;36.65;43.98
74230;BME280;62589;12.568;99.958;2023-04-01T02:41:28;100878.78;;;36.69;43.65
74230;BME280;62589;12.568;99.958;2023-04-01T02:43:55;100881.97;;;36.71;43.65
74230;BME280;62589;12.568;99.958;2023-04-01T02:46:23;100874.00;;;36.66;43.59
74230;BME280;62589;12.568;99.958;2023-04-01T02:48:49;100880.38;;;36.70;44.50
74230;BME280;62589;12.568;99.958;2023-04-01T02:51:16;100869.09;;;36.80;45.08
74230;BME280;62589;12.568;99.958;2023-04-01T02:53:42;100874.63;;;36.88;45.39
74230;BME280;62589;12.568;99.958;2023-04-01T02:56:09;100870.59;;;36.92;45.10
74230;BME280;62589;12.568;99.958;2023-04-01T02:58:35;100874.09;;;37.00;45.43
74230;BME280;62589;12.568;99.958;2023-04-01T03:01:01;100866.97;;;36.95;45.42
74230;BME280;62589;12.568;99.958;2023-04-01T03:03:28;100870.97;;;36.94;45.36
74230;BME280;62589;12.568;99.958;2023-04-01T03:05:57;100869.38;;;36.97;45.38
74230;BME280;62589;12.568;99.958;2023-04-01T03:08:25;100867.41;;;36.90;45.89
74230;BME280;62589;12.568;99.958;2023-04-01T03:10:52;100870.63;;;36.89;45.25
74230;BME280;62589;12.568;99.958;2023-04-01T03:13:18;100874.16;;;36.96;45.71
74230;BME280;62589;12.568;99.958;2023-04-01T03:15:45;100871.44;;;36.89;45.65
74230;BME280;62589;12.568;99.958;2023-04-01T03:18:11;100854.97;;;36.98;45.16
74230;BME280;62589;12.568;99.958;2023-04-01T03:20:38;100852.56;;;36.97;45.56
74230;BME280;62589;12.568;99.958;2023-04-01T03:23:04;100856.06;;;37.04;45.25
74230;BME280;62589;12.568;99.958;2023-04-01T03:25:31;100861.69;;;37.01;45.97
74230;BME280;62589;12.568;99.958;2023-04-01T03:27:57;100859.97;;;37.14;45.91
74230;BME280;62589;12.568;99.958;2023-04-01T03:30:26;100861.56;;;37.15;45.74
74230;BME280;62589;12.568;99.958;2023-04-01T03:32:52;100854.41;;;37.10;46.64
74230;BME280;62589;12.568;99.958;2023-04-01T03:35:19;100856.78;;;37.15;46.39
74230;BME280;62589;12.568;99.958;2023-04-01T03:37:45;100848.81;;;37.10;46.61
74230;BME280;62589;12.568;99.958;2023-04-01T03:40:12;100852.00;;;37.12;46.72
74230;BME280;62589;12.568;99.958;2023-04-01T03:42:39;100846.03;;;37.10;47.40
74230;BME280;62589;12.568;99.958;2023-04-01T03:45:06;100845.59;;;37.12;47.11
74230;BME280;62589;12.568;99.958;2023-04-01T03:47:32;100851.97;;;37.20;46.83
74230;BME280;62589;12.568;99.958;2023-04-01T03:49:59;100840.41;;;37.10;47.17
74230;BME280;62589;12.568;99.958;2023-04-01T03:52:25;100846.34;;;37.20;46.92
74230;BME280;62589;12.568;99.958;2023-04-01T03:54:52;100851.06;;;37.26;46.87
74230;BME280;62589;12.568;99.958;2023-04-01T03:57:18;100839.03;;;37.29;46.88
74230;BME280;62589;12.568;99.958;2023-04-01T03:59:45;100837.00;;;37.33;47.10
74230;BME280;62589;12.568;99.958;2023-04-01T04:02:11;100835.09;;;37.23;46.58
74230;BME280;62589;12.568;99.958;2023-04-01T04:04:38;100830.34;;;37.20;47.30
74230;BME280;62589;12.568;99.958;2023-04-01T04:07:04;100826.25;;;37.28;47.07
74230;BME280;62589;12.568;99.958;2023-04-01T04:09:31;100831.81;;;37.32;47.37
74230;BME280;62589;12.568;99.958;2023-04-01T04:11:57;100823.84;;;37.27;47.58
74230;BME280;62589;12.568;99.958;2023-04-01T04:14:24;100825.28;;;37.42;47.53
74230;BME280;62589;12.568;99.958;2023-04-01T04:16:51;100821.44;;;37.29;47.40
74230;BME280;62589;12.568;99.958;2023-04-01T04:19:17;100810.31;;;37.22;47.08
74230;BME280;62589;12.568;99.958;2023-04-01T04:21:44;100814.91;;;37.01;48.07
74230;BME280;62589;12.568;99.958;2023-04-01T04:24:10;100814.63;;;37.30;47.93
74230;BME280;62589;12.568;99.958;2023-04-01T04:26:37;100803.59;;;37.15;48.05
74230;BME280;62589;12.568;99.958;2023-04-01T04:29:03;100808.81;;;37.13;47.89
74230;BME280;62589;12.568;99.958;2023-04-01T04:31:30;100795.53;;;37.21;47.72
74230;BME280;62589;12.568;99.958;2023-04-01T04:33:58;100796.34;;;37.18;48.12
74230;BME280;62589;12.568;99.958;2023-04-01T04:36:24;100794.44;;;37.11;48.09
74230;BME280;62589;12.568;99.958;2023-04-01T04:38:51;100781.53;;;37.21;47.97
74230;BME280;62589;12.568;99.958;2023-04-01T04:41:18;100781.88;;;36.89;48.53
74230;BME280;62589;12.568;99.958;2023-04-01T04:43:50;100784.13;;;37.01;48.80
74230;BME280;62589;12.568;99.958;2023-04-01T04:46:18;100774.69;;;37.26;48.22
74230;BME280;62589;12.568;99.958;2023-04-01T04:48:45;100773.19;;;37.14;48.51
74230;BME280;62589;12.568;99.958;2023-04-01T04:51:16;100762.81;;;37.14;48.44
74230;BME280;62589;12.568;99.958;2023-04-01T04:53:44;100761.97;;;37.17;48.46
74230;BME280;62589;12.568;99.958;2023-04-01T04:56:11;100767.81;;;37.30;48.21
74230;BME280;62589;12.568;99.958;2023-04-01T04:58:38;100751.19;;;37.16;48.63
74230;BME280;62589;12.568;99.958;2023-04-01T05:01:07;100747.09;;;37.24;48.69
74230;BME280;62589;12.568;99.958;2023-04-01T05:03:34;100747.34;;;37.03;49.12
74230;BME280;62589;12.568;99.958;2023-04-01T05:06:01;100747.03;;;36.97;48.48
74230;BME280;62589;12.568;99.958;2023-04-01T05:08:27;100727.56;;;37.17;49.42
74230;BME280;62589;12.568;99.958;2023-04-01T05:10:54;100723.06;;;37.27;49.04
74230;BME280;62589;12.568;99.958;2023-04-01T05:13:20;100712.88;;;37.09;48.60
74230;BME280;62589;12.568;99.958;2023-04-01T05:15:47;100702.09;;;37.08;49.00
74230;BME280;62589;12.568;99.958;2023-04-01T05:18:13;100701.63;;;37.13;49.06
74230;BME280;62589;12.568;99.958;2023-04-01T05:20:49;100705.03;;;36.97;49.57
74230;BME280;62589;12.568;99.958;2023-04-01T05:23:16;100697.91;;;36.93;49.37
74230;BME280;62589;12.568;99.958;2023-04-01T05:25:43;100702.25;;;36.97;49.32
74230;BME280;62589;12.568;99.958;2023-04-01T05:28:11;100691.03;;;36.60;50.44
74230;BME280;62589;12.568;99.958;2023-04-01T05:30:40;100674.94;;;36.71;50.97
74230;BME280;62589;12.568;99.958;2023-04-01T05:33:08;100689.72;;;36.75;50.69
74230;BME280;62589;12.568;99.958;2023-04-01T05:35:34;100671.88;;;36.58;50.59
74230;BME280;62589;12.568;99.958;2023-04-01T05:38:02;100667.75;;;36.70;50.80
74230;BME280;62589;12.568;99.958;2023-04-01T05:40:28;100659.25;;;36.80;50.75
74230;BME280;62589;12.568;99.958;2023-04-01T05:42:55;100659.06;;;36.98;50.74
74230;BME280;62589;12.568;99.958;2023-04-01T05:45:22;100662.41;;;36.86;50.62
74230;BME280;62589;12.568;99.958;2023-04-01T05:47:48;100657.25;;;36.81;50.94
74230;BME280;62589;12.568;99.958;2023-04-01T05:50:15;100651.19;;;36.52;51.88
74230;BME280;62589;12.568;99.958;2023-04-01T05:52:42;100643.88;;;36.62;51.41
74230;BME280;62589;12.568;99.958;2023-04-01T05:55:09;100635.69;;;36.44;52.12
74230;BME280;62589;12.568;99.958;2023-04-01T05:57:35;100635.25;;;36.49;52.53
74230;BME280;62589;12.568;99.958;2023-04-01T06:00:03;100628.00;;;36.55;52.61
74230;BME280;62589;12.568;99.958;2023-04-01T06:02:30;100628.50;;;36.43;52.13
74230;BME280;62589;12.568;99.958;2023-04-01T06:05:19;100636.09;;;36.42;52.99
74230;BME280;62589;12.568;99.958;2023-04-01T06:07:45;100618.22;;;36.36;52.90
74230;BME280;62589;12.568;99.958;2023-04-01T06:10:20;100614.25;;;35.93;54.65
74230;BME280;62589;12.568;99.958;2023-04-01T06:13:05;100602.72;;;36.28;54.23
74230;BME280;62589;12.568;99.958;2023-04-01T06:15:54;100607.72;;;36.44;52.94
74230;BME280;62589;12.568;99.958;2023-04-01T06:21:37;100597.00;;;35.98;54.99
74230;BME280;62589;12.568;99.958;2023-04-01T06:24:32;100579.47;;;35.97;54.82
74230;BME280;62589;12.568;99.958;2023-04-01T06:30:33;100569.97;;;36.29;54.08
74230;BME280;62589;12.568;99.958;2023-04-01T06:33:30;100568.44;;;36.24;54.52
74230;BME280;62589;12.568;99.958;2023-04-01T06:42:24;100547.66;;;36.25;54.68
74230;BME280;62589;12.568;99.958;2023-04-01T06:51:20;100547.47;;;36.39;53.86
74230;BME280;62589;12.568;99.958;2023-04-01T06:53:59;100536.47;;;36.25;54.37
74230;BME280;62589;12.568;99.958;2023-04-01T06:56:29;100537.28;;;36.22;54.63
74230;BME280;62589;12.568;99.958;2023-04-01T07:04:53;100522.44;;;35.95;55.74
74230;BME280;62589;12.568;99.958;2023-04-01T07:07:37;100508.78;;;36.00;56.26
74230;BME280;62589;12.568;99.958;2023-04-01T07:10:17;100501.50;;;36.10;55.84
74230;BME280;62589;12.568;99.958;2023-04-01T07:13:06;100500.63;;;36.17;55.38
74230;BME280;62589;12.568;99.958;2023-04-01T07:15:40;100510.22;;;36.15;55.48
74230;BME280;62589;12.568;99.958;2023-04-01T07:18:25;100494.28;;;36.12;55.97
74230;BME280;62589;12.568;99.958;2023-04-01T07:20:55;100491.53;;;36.09;55.97
74230;BME280;62589;12.568;99.958;2023-04-01T07:23:26;100491.84;;;36.14;55.26
74230;BME280;62589;12.568;99.958;2023-04-01T07:25:59;100493.19;;;36.03;54.84
74230;BME280;62589;12.568;99.958;2023-04-01T07:28:30;100475.22;;;36.04;54.54
74230;BME280;62589;12.568;99.958;2023-04-01T07:31:15;100483.06;;;36.16;53.56
74230;BME280;62589;12.568;99.958;2023-04-01T07:34:00;100472.97;;;36.26;54.16
74230;BME280;62589;12.568;99.958;2023-04-01T07:36:43;100486.28;;;36.14;53.98
74230;BME280;62589;12.568;99.958;2023-04-01T07:39:37;100458.44;;;36.04;55.02
74230;BME280;62589;12.568;99.958;2023-04-01T07:48:02;100445.97;;;36.42;54.07
74230;BME280;62589;12.568;99.958;2023-04-01T07:50:53;100450.09;;;36.34;54.11
74230;BME280;62589;12.568;99.958;2023-04-01T07:56:28;100450.44;;;36.06;53.67
74230;BME280;62589;12.568;99.958;2023-04-01T08:02:07;100435.41;;;36.27;53.34
74230;BME280;62589;12.568;99.958;2023-04-01T08:04:59;100439.00;;;36.27;52.92
74230;BME280;62589;12.568;99.958;2023-04-01T08:07:44;100423.44;;;36.26;53.71
74230;BME280;62589;12.568;99.958;2023-04-01T08:16:08;100397.22;;;36.43;53.42
74230;BME280;62589;12.568;99.958;2023-04-01T08:18:53;100399.25;;;36.43;53.43
74230;BME280;62589;12.568;99.958;2023-04-01T08:21:30;100396.72;;;36.25;53.50
74230;BME280;62589;12.568;99.958;2023-04-01T08:24:00;100383.38;;;36.36;53.46
74230;BME280;62589;12.568;99.958;2023-04-01T08:26:48;100385.09;;;36.27;53.60
74230;BME280;62589;12.568;99.958;2023-04-01T08:29:23;100384.22;;;36.33;53.99
74230;BME280;62589;12.568;99.958;2023-04-01T08:32:03;100385.22;;;36.46;53.16
74230;BME280;62589;12.568;99.958;2023-04-01T08:34:37;100378.41;;;36.17;54.03
74230;BME280;62589;12.568;99.958;2023-04-01T08:37:17;100375.19;;;36.19;54.09
74230;BME280;62589;12.568;99.958;2023-04-01T08:40:13;100385.59;;;36.18;54.72
74230;BME280;62589;12.568;99.958;2023-04-01T08:43:22;100369.56;;;36.22;54.33
74230;BME280;62589;12.568;99.958;2023-04-01T08:46:17;100360.56;;;36.11;54.79
74230;BME280;62589;12.568;99.958;2023-04-01T08:52:07;100377.69;;;36.13;54.85
74230;BME280;62589;12.568;99.958;2023-04-01T09:00:37;100372.66;;;35.67;55.80
74230;BME280;62589;12.568;99.958;2023-04-01T09:12:32;100360.19;;;35.78;55.63
74230;BME280;62589;12.568;99.958;2023-04-01T09:15:31;100366.53;;;35.45;57.01
74230;BME280;62589;12.568;99.958;2023-04-01T09:18:36;100379.28;;;35.46;56.28
74230;BME280;62589;12.568;99.958;2023-04-01T09:27:08;100375.06;;;35.27;56.89
74230;BME280;62589;12.568;99.958;2023-04-01T09:32:42;100353.47;;;35.35;56.42
74230;BME280;62589;12.568;99.958;2023-04-01T09:41:08;100350.34;;;35.33;56.87
74230;BME280;62589;12.568;99.958;2023-04-01T09:43:54;100354.75;;;35.27;57.48
74230;BME280;62589;12.568;99.958;2023-04-01T09:52:38;100345.03;;;35.42;56.47
74230;BME280;62589;12.568;99.958;2023-04-01T10:07:22;100387.44;;;35.26;57.90
74230;BME280;62589;12.568;99.958;2023-04-01T10:10:18;100400.19;;;35.31;57.79
74230;BME280;62589;12.568;99.958;2023-04-01T10:13:10;100410.50;;;35.34;57.81
74230;BME280;62589;12.568;99.958;2023-04-01T10:19:10;100427.31;;;35.27;57.53
74230;BME280;62589;12.568;99.958;2023-04-01T10:22:17;100428.56;;;35.19;57.30
74230;BME280;62589;12.568;99.958;2023-04-01T10:25:05;100443.66;;;35.32;56.89
74230;BME280;62589;12.568;99.958;2023-04-01T10:42:35;100499.94;;;35.20;57.20
74230;BME280;62589;12.568;99.958;2023-04-01T10:45:25;100495.09;;;35.27;57.38
74230;BME280;62589;12.568;99.958;2023-04-01T10:56:56;100448.53;;;35.13;56.88
74230;BME280;62589;12.568;99.958;2023-04-01T10:59:31;100456.03;;;35.31;55.71
74230;BME280;62589;12.568;99.958;2023-04-01T11:02:36;100450.44;;;35.27;55.75
74230;BME280;62589;12.568;99.958;2023-04-01T11:16:42;100506.47;;;34.95;56.82
74230;BME280;62589;12.568;99.958;2023-04-01T11:37:04;100536.72;;;35.04;57.18
74230;BME280;62589;12.568;99.958;2023-04-01T11:46:01;100538.22;;;35.15;56.35
74230;BME280;62589;12.568;99.958;2023-04-01T11:49:02;100529.13;;;35.11;56.24
74230;BME280;62589;12.568;99.958;2023-04-01T11:51:46;100533.50;;;35.09;56.40
74230;BME280;62589;12.568;99.958;2023-04-01T11:54:41;100539.06;;;35.12;56.60
74230;BME280;62589;12.568;99.958;2023-04-01T12:00:35;100520.81;;;34.97;56.88
74230;BME280;62589;12.568;99.958;2023-04-01T12:06:35;100526.69;;;35.13;55.98
74230;BME280;62589;12.568;99.958;2023-04-01T12:09:25;100527.84;;;35.16;55.95
74230;BME280;62589;12.568;99.958;2023-04-01T12:12:17;100538.28;;;35.08;55.63
74230;BME280;62589;12.568;99.958;2023-04-01T12:15:03;100537.47;;;35.11;55.84
74230;BME280;62589;12.568;99.958;2023-04-01T12:18:03;100533.16;;;35.03;56.04
74230;BME280;62589;12.568;99.958;2023-04-01T12:21:00;100531.91;;;35.11;55.67
74230;BME280;62589;12.568;99.958;2023-04-01T12:26:52;100546.34;;;34.92;56.30
74230;BME280;62589;12.568;99.958;2023-04-01T12:38:36;100560.16;;;35.13;55.29
74230;BME280;62589;12.568;99.958;2023-04-01T12:44:53;100570.91;;;35.19;55.51
74230;BME280;62589;12.568;99.958;2023-04-01T12:47:51;100587.63;;;35.22;55.53
74230;BME280;62589;12.568;99.958;2023-04-01T12:50:35;100597.22;;;35.18;55.10
74230;BME280;62589;12.568;99.958;2023-04-01T13:02:20;100610.75;;;35.23;55.22
74230;BME280;62589;12.568;99.958;2023-04-01T13:16:38;100624.31;;;35.17;54.76
74230;BME280;62589;12.568;99.958;2023-04-01T13:19:18;100630.72;;;35.14;54.85
74230;BME280;62589;12.568;99.958;2023-04-01T13:27:43;100633.91;;;35.16;55.04
74230;BME280;62589;12.568;99.958;2023-04-01T13:36:19;100619.53;;;35.21;54.90
74230;BME280;62589;12.568;99.958;2023-04-01T13:45:23;100642.75;;;35.04;55.52
74230;BME280;62589;12.568;99.958;2023-04-01T13:51:02;100642.69;;;35.14;55.44
74230;BME280;62589;12.568;99.958;2023-04-01T14:02:43;100644.66;;;35.18;54.87
74230;BME280;62589;12.568;99.958;2023-04-01T14:05:43;100654.63;;;35.15;55.36
74230;BME280;62589;12.568;99.958;2023-04-01T14:17:19;100679.00;;;35.11;55.83
74230;BME280;62589;12.568;99.958;2023-04-01T14:20:22;100676.16;;;35.14;55.21
74230;BME280;62589;12.568;99.958;2023-04-01T14:26:02;100691.41;;;34.99;56.04
74230;BME280;62589;12.568;99.958;2023-04-01T14:31:43;100698.97;;;34.95;56.29
74230;BME280;62589;12.568;99.958;2023-04-01T14:37:27;100705.81;;;34.84;56.29
74230;BME280;62589;12.568;99.958;2023-04-01T14:43:20;100722.94;;;34.89;55.64
74230;BME280;62589;12.568;99.958;2023-04-01T14:46:17;100721.72;;;34.72;56.44
74230;BME280;62589;12.568;99.958;2023-04-01T14:49:00;100728.09;;;34.73;56.10
74230;BME280;62589;12.568;99.958;2023-04-01T14:51:35;100725.31;;;34.76;56.40
74230;BME280;62589;12.568;99.958;2023-04-01T14:54:14;100735.31;;;34.81;56.58
74230;BME280;62589;12.568;99.958;2023-04-01T14:56:51;100728.13;;;34.80;56.65
74230;BME280;62589;12.568;99.958;2023-04-01T14:59:39;100732.09;;;34.75;56.94
74230;BME280;62589;12.568;99.958;2023-04-01T15:05:16;100735.72;;;34.69;57.19
74230;BME280;62589;12.568;99.958;2023-04-01T15:08:10;100734.91;;;34.79;56.83
74230;BME280;62589;12.568;99.958;2023-04-01T15:10:53;100739.66;;;34.75;57.44
74230;BME280;62589;12.568;99.958;2023-04-01T15:13:39;100751.63;;;34.79;56.92
74230;BME280;62589;12.568;99.958;2023-04-01T15:28:16;100770.78;;;34.70;57.43
74230;BME280;62589;12.568;99.958;2023-04-01T15:31:02;100773.56;;;34.70;57.52
74230;BME280;62589;12.568;99.958;2023-04-01T15:37:08;100784.72;;;34.70;57.53
74230;BME280;62589;12.568;99.958;2023-04-01T15:40:00;100791.88;;;34.71;57.10
74230;BME280;62589;12.568;99.958;2023-04-01T16:00:25;100766.34;;;34.72;56.65
74230;BME280;62589;12.568;99.958;2023-04-01T16:03:16;100768.78;;;34.67;56.81
74230;BME280;62589;12.568;99.958;2023-04-01T16:09:20;100765.19;;;34.59;56.81
74230;BME280;62589;12.568;99.958;2023-04-01T16:12:03;100766.78;;;34.67;56.79
74230;BME280;62589;12.568;99.958;2023-04-01T16:17:59;100762.41;;;34.63;56.56
74230;BME280;62589;12.568;99.958;2023-04-01T16:20:46;100771.19;;;34.43;57.62
74230;BME280;62589;12.568;99.958;2023-04-01T16:23:36;100773.59;;;34.49;57.04
74230;BME280;62589;12.568;99.958;2023-04-01T16:29:19;100766.78;;;34.53;57.13
74230;BME280;62589;12.568;99.958;2023-04-01T16:37:39;100767.22;;;34.48;57.30
74230;BME280;62589;12.568;99.958;2023-04-01T16:43:28;100752.47;;;34.40;57.69
74230;BME280;62589;12.568;99.958;2023-04-01T16:46:17;100762.44;;;34.34;58.07
74230;BME280;62589;12.568;99.958;2023-04-01T16:55:00;100753.25;;;34.20;58.33
74230;BME280;62589;12.568;99.958;2023-04-01T16:57:43;100745.69;;;34.38;57.72
74230;BME280;62589;12.568;99.958;2023-04-01T17:00:37;100744.91;;;34.34;57.46
74230;BME280;62589;12.568;99.958;2023-04-01T17:03:28;100744.91;;;34.30;57.77
74230;BME280;62589;12.568;99.958;2023-04-01T17:12:32;100731.38;;;34.32;57.54
74230;BME280;62589;12.568;99.958;2023-04-01T17:15:27;100728.56;;;34.32;57.75
74230;BME280;62589;12.568;99.958;2023-04-01T17:23:45;100717.03;;;34.23;58.02
74230;BME280;62589;12.568;99.958;2023-04-01T17:29:23;100722.59;;;34.30;57.90
74230;BME280;62589;12.568;99.958;2023-04-01T17:38:10;100718.63;;;34.24;57.95
74230;BME280;62589;12.568;99.958;2023-04-01T17:43:58;100718.63;;;34.28;57.93
74230;BME280;62589;12.568;99.958;2023-04-01T17:49:56;100704.31;;;34.29;57.37
74230;BME280;62589;12.568;99.958;2023-04-01T17:55:53;100704.28;;;34.19;57.70
74230;BME280;62589;12.568;99.958;2023-04-01T18:01:36;100708.28;;;34.25;57.83
74230;BME280;62589;12.568;99.958;2023-04-01T18:04:18;100703.50;;;34.25;57.36
74230;BME280;62589;12.568;99.958;2023-04-01T18:10:01;100696.31;;;34.31;57.49
74230;BME280;62589;12.568;99.958;2023-04-01T18:13:06;100686.78;;;34.32;57.08
74230;BME280;62589;12.568;99.958;2023-04-01T18:15:46;100689.97;;;34.31;56.97
74230;BME280;62589;12.568;99.958;2023-04-01T18:21:32;100691.16;;;34.26;57.11
74230;BME280;62589;12.568;99.958;2023-04-01T18:27:22;100672.03;;;34.18;57.05
74230;BME280;62589;12.568;99.958;2023-04-01T18:29:54;100680.41;;;34.21;56.93
74230;BME280;62589;12.568;99.958;2023-04-01T18:38:35;100671.63;;;34.26;57.13
74230;BME280;62589;12.568;99.958;2023-04-01T18:52:43;100664.47;;;34.11;56.64
74230;BME280;62589;12.568;99.958;2023-04-01T19:01:19;100671.25;;;34.13;57.01
74230;BME280;62589;12.568;99.958;2023-04-01T19:06:56;100657.72;;;34.12;57.01
74230;BME280;62589;12.568;99.958;2023-04-01T19:09:32;100665.66;;;34.10;57.13
74230;BME280;62589;12.568;99.958;2023-04-01T19:15:25;100663.69;;;34.07;57.36
74230;BME280;62589;12.568;99.958;2023-04-01T19:21:01;100646.59;;;34.08;57.22
74230;BME280;62589;12.568;99.958;2023-04-01T19:26:42;100643.78;;;34.12;57.23
74230;BME280;62589;12.568;99.958;2023-04-01T19:38:30;100617.94;;;33.97;57.93
74230;BME280;62589;12.568;99.958;2023-04-01T19:44:18;100617.13;;;33.93;58.19
74230;BME280;62589;12.568;99.958;2023-04-01T19:52:40;100604.03;;;33.87;58.06
74230;BME280;62589;12.568;99.958;2023-04-01T19:55:33;100599.25;;;33.87;58.14
74230;BME280;62589;12.568;99.958;2023-04-01T19:58:12;100600.06;;;33.88;58.31
74230;BME280;62589;12.568;99.958;2023-04-01T20:00:47;100601.63;;;33.89;58.32
74230;BME280;62589;12.568;99.958;2023-04-01T20:03:48;100607.97;;;33.96;57.84
74230;BME280;62589;12.568;99.958;2023-04-01T20:06:38;100592.88;;;33.90;58.54
74230;BME280;62589;12.568;99.958;2023-04-01T20:09:34;100594.06;;;34.00;57.69
74230;BME280;62589;12.568;99.958;2023-04-01T20:14:58;100587.31;;;33.87;58.01
74230;BME280;62589;12.568;99.958;2023-04-01T20:17:41;100589.69;;;33.92;58.17
74230;BME280;62589;12.568;99.958;2023-04-01T20:20:27;100588.91;;;33.88;58.05
74230;BME280;62589;12.568;99.958;2023-04-01T20:25:51;100577.38;;;33.86;57.68
74230;BME280;62589;12.568;99.958;2023-04-01T20:28:29;100575.38;;;33.86;57.93
74230;BME280;62589;12.568;99.958;2023-04-01T20:34:13;100574.16;;;33.91;57.87
74230;BME280;62589;12.568;99.958;2023-04-01T20:37:00;100562.63;;;33.92;57.62
74230;BME280;62589;12.568;99.958;2023-04-01T20:39:45;100568.19;;;33.89;57.49
74230;BME280;62589;12.568;99.958;2023-04-01T20:48:30;100556.25;;;33.95;57.30
74230;BME280;62589;12.568;99.958;2023-04-01T20:56:47;100559.44;;;33.94;56.60